createdAt,value
2018-12-20T01:23:17.797Z,108.50
2018-12-20T01:31:44.526Z,122.90
2018-12-20T01:40:08.503Z,115.40
2018-12-20T01:45:46.197Z,111.70
2018-12-20T01:48:31.755Z,111.47
2018-12-20T01:59:48.884Z,118.20
2018-12-20T02:02:39.366Z,111.37
2018-12-20T02:05:38.744Z,111.90
2018-12-20T02:08:24.383Z,99.30
2018-12-20T02:11:23.606Z,107.73
2018-12-20T02:17:01.361Z,99.83
2018-12-20T02:22:39.148Z,104.73
2018-12-20T02:25:25.863Z,97.67
2018-12-20T02:28:24.786Z,93.13
2018-12-20T02:31:10.522Z,98.87
2018-12-20T02:36:19.278Z,101.87
2018-12-20T02:38:59.333Z,105.43
2018-12-20T02:41:41.617Z,112.30
2018-12-20T02:44:23.053Z,112.97
2018-12-20T02:47:07.440Z,96.87
2018-12-20T02:49:35.001Z,126.10
2018-12-20T02:52:02.633Z,118.40
2018-12-20T02:54:30.386Z,125.93
2018-12-20T03:00:02.889Z,119.77
2018-12-20T03:02:30.655Z,126.77
2018-12-20T03:05:10.782Z,137.57
2018-12-20T03:07:51.413Z,116.27
2018-12-20T03:10:19.137Z,114.97
2018-12-20T03:13:00.245Z,130.73
2018-12-20T03:15:40.484Z,127.47
2018-12-20T03:18:20.718Z,129.47
2018-12-20T03:23:58.257Z,125.50
2018-12-20T03:26:38.824Z,121.80
2018-12-20T03:32:12.837Z,121.03
2018-12-20T03:34:53.135Z,122.53
2018-12-20T03:37:33.319Z,133.63
2018-12-20T03:40:14.046Z,118.67
2018-12-20T03:42:54.563Z,123.73
2018-12-20T03:45:28.626Z,129.67
2018-12-20T05:16:47.422Z,425.03
2018-12-20T05:19:27.560Z,377.13
2018-12-20T05:22:07.968Z,318.60
2018-12-20T05:24:48.390Z,268.07
2018-12-20T05:27:28.977Z,186.97
2018-12-20T05:36:00.313Z,167.93
2018-12-20T05:38:27.946Z,167.37
2018-12-20T05:40:55.663Z,168.53
2018-12-20T05:43:36.287Z,160.50
2018-12-20T05:46:16.431Z,159.63
2018-12-20T05:51:57.510Z,164.53
2018-12-20T05:54:25.247Z,185.40
2018-12-20T05:57:06.252Z,183.13
2018-12-20T05:59:33.876Z,183.40
2018-12-20T06:02:13.935Z,197.07
2018-12-20T06:04:41.482Z,191.53
2018-12-20T06:07:21.874Z,222.87
2018-12-20T06:10:02.389Z,289.07
2018-12-20T06:12:29.969Z,319.53
2018-12-20T06:14:57.615Z,272.77
2018-12-20T06:17:37.869Z,314.40
2018-12-20T06:20:05.667Z,394.60
2018-12-20T06:22:46.962Z,426.23
2018-12-20T06:25:26.611Z,386.83
2018-12-20T06:27:54.444Z,314.57
2018-12-20T06:30:23.878Z,332.03
2018-12-20T06:32:52.915Z,331.47
2018-12-20T06:35:20.716Z,328.63
2018-12-20T06:37:48.515Z,355.17
2018-12-20T06:40:16.467Z,285.83
2018-12-20T06:42:50.367Z,260.50
2018-12-20T06:45:17.916Z,244.80
2018-12-20T06:47:45.513Z,240.20
2018-12-20T06:50:13.135Z,206.30
2018-12-20T06:52:41.453Z,211.70
2018-12-20T06:55:10.074Z,204.53
2018-12-20T06:57:37.675Z,180.73
2018-12-20T07:00:09.747Z,146.37
2018-12-20T07:02:38.540Z,167.47
2018-12-20T07:05:06.539Z,182.83
2018-12-20T07:07:34.087Z,162.87
2018-12-20T07:10:01.675Z,145.43
2018-12-20T07:12:29.543Z,190.17
2018-12-20T07:14:57.160Z,171.87
2018-12-20T07:17:24.957Z,182.70
2018-12-20T07:19:52.521Z,151.07
2018-12-20T07:22:21.661Z,135.37
2018-12-20T07:24:50.331Z,152.77
2018-12-20T07:27:17.966Z,164.93
2018-12-20T07:29:46.652Z,180.17
2018-12-20T07:32:14.234Z,243.40
2018-12-20T07:34:47.872Z,235.27
2018-12-20T07:37:11.641Z,230.37
2018-12-20T07:39:39.237Z,270.20
2018-12-20T07:42:07.032Z,243.80
2018-12-20T07:44:37.557Z,300.60
2018-12-20T07:47:05.053Z,285.20
2018-12-20T07:49:32.716Z,312.73
2018-12-20T07:52:00.373Z,230.30
2018-12-20T07:54:27.972Z,234.87
2018-12-20T07:56:55.525Z,200.03
2018-12-20T07:59:23.649Z,196.40
2018-12-20T08:01:52.623Z,155.33
2018-12-20T08:04:21.115Z,126.03
2018-12-20T08:06:48.665Z,144.43
2018-12-20T08:09:17.021Z,126.57
2018-12-20T08:11:45.566Z,144.07
2018-12-20T08:14:13.108Z,133.50
2018-12-20T08:16:45.983Z,132.87
2018-12-20T08:19:10.239Z,123.00
2018-12-20T08:21:39.656Z,126.10
2018-12-20T08:24:10.265Z,129.27
2018-12-20T08:26:38.351Z,115.57
2018-12-20T08:29:15.202Z,118.63
2018-12-20T08:31:44.261Z,116.30
2018-12-20T08:34:12.314Z,108.07
2018-12-20T08:36:41.932Z,107.73
2018-12-20T08:39:09.831Z,100.10
2018-12-20T08:41:38.966Z,109.83
2018-12-20T08:44:09.140Z,108.27
2018-12-20T08:46:39.802Z,114.00
2018-12-20T08:49:09.834Z,107.17
2018-12-20T08:51:38.781Z,108.57
2018-12-20T08:54:08.283Z,103.20
2018-12-20T08:56:38.519Z,99.10
2018-12-20T08:59:06.380Z,99.07
2018-12-20T09:01:34.913Z,103.67
2018-12-20T09:04:04.545Z,111.50
2018-12-20T09:06:32.510Z,96.37
2018-12-20T09:09:00.577Z,88.10
2018-12-20T09:11:28.396Z,102.83
2018-12-20T09:13:56.115Z,107.77
2018-12-20T09:16:27.923Z,96.83
2018-12-20T09:18:55.668Z,102.03
2018-12-20T09:21:25.284Z,99.40
2018-12-20T09:23:54.892Z,97.77
2018-12-20T09:26:23.378Z,105.83
2018-12-20T09:28:53.928Z,123.53
2018-12-20T09:31:22.101Z,113.30
2018-12-20T09:33:50.925Z,93.53
2018-12-20T09:36:18.620Z,105.93
2018-12-20T09:38:49.019Z,102.47
2018-12-20T09:41:20.003Z,96.33
2018-12-20T09:43:48.093Z,107.27
2018-12-20T09:46:16.067Z,100.80
2018-12-20T09:48:46.411Z,97.33
2018-12-20T09:51:15.228Z,97.23
2018-12-20T09:53:44.664Z,109.27
2018-12-20T09:56:13.798Z,105.67
2018-12-20T09:58:42.293Z,101.77
2018-12-20T10:01:12.466Z,117.93
2018-12-20T10:03:41.266Z,104.83
2018-12-20T10:06:11.167Z,96.87
2018-12-20T10:08:38.727Z,97.93
2018-12-20T10:11:06.331Z,98.20
2018-12-20T10:13:33.877Z,115.50
2018-12-20T10:16:01.505Z,113.03
2018-12-20T10:18:29.132Z,109.43
2018-12-20T10:20:56.693Z,120.87
2018-12-20T10:23:25.214Z,128.50
2018-12-20T10:25:52.806Z,118.80
2018-12-20T10:28:20.360Z,122.60
2018-12-20T10:30:48.256Z,126.57
2018-12-20T10:33:17.707Z,129.43
2018-12-20T10:35:46.650Z,125.73
2018-12-20T10:38:15.517Z,116.73
2018-12-20T10:40:45.754Z,113.53
2018-12-20T10:43:15.210Z,117.63
2018-12-20T10:45:44.240Z,114.33
2018-12-20T10:48:13.265Z,106.73
2018-12-20T10:50:42.337Z,103.87
2018-12-20T10:53:11.153Z,123.10
2018-12-20T10:55:40.583Z,119.23
2018-12-20T10:58:08.443Z,116.47
2018-12-20T11:00:44.035Z,113.63
2018-12-20T11:03:17.368Z,128.23
2018-12-20T11:05:51.066Z,107.90
2018-12-20T11:08:23.914Z,114.60
2018-12-20T11:10:53.856Z,114.10
2018-12-20T11:13:25.756Z,119.80
2018-12-20T11:15:53.488Z,120.83
2018-12-20T11:18:22.349Z,122.93
2018-12-20T11:20:50.150Z,132.00
2018-12-20T11:23:17.911Z,109.33
2018-12-20T11:25:46.691Z,109.57
2018-12-20T11:28:16.137Z,110.23
2018-12-20T11:30:43.920Z,116.63
2018-12-20T11:33:12.677Z,122.80
2018-12-20T11:35:40.294Z,102.37
2018-12-20T11:38:08.147Z,102.07
2018-12-20T11:40:36.817Z,104.77
2018-12-20T11:43:05.577Z,85.30
2018-12-20T11:45:33.149Z,87.50
2018-12-20T11:48:00.803Z,95.30
2018-12-20T11:50:28.371Z,94.40
2018-12-20T11:52:56.757Z,84.00
2018-12-20T11:55:37.110Z,84.27
2018-12-20T11:58:04.719Z,87.53
2018-12-20T12:00:34.285Z,82.83
2018-12-20T12:03:01.834Z,99.63
2018-12-20T12:05:29.687Z,97.43
2018-12-20T12:07:57.236Z,94.20
2018-12-20T12:10:24.796Z,95.90
2018-12-20T12:12:52.354Z,89.80
2018-12-20T12:15:19.943Z,95.50
2018-12-20T12:17:54.237Z,84.90
2018-12-20T12:20:18.137Z,91.17
2018-12-20T12:22:45.671Z,96.90
2018-12-20T12:25:13.221Z,94.07
2018-12-20T12:27:40.812Z,95.70
2018-12-20T12:30:09.164Z,92.73
2018-12-20T12:32:36.757Z,84.40
2018-12-20T12:35:04.724Z,86.30
2018-12-20T12:37:32.317Z,87.13
2018-12-20T12:39:59.869Z,92.13
2018-12-20T12:42:27.396Z,83.43
2018-12-20T12:44:55.211Z,90.23
2018-12-20T12:47:24.778Z,81.37
2018-12-20T12:49:52.386Z,84.10
2018-12-20T12:52:20.019Z,86.70
2018-12-20T12:54:47.697Z,77.43
2018-12-20T12:57:15.452Z,95.07
2018-12-20T12:59:42.993Z,85.23
2018-12-20T13:02:10.654Z,84.87
2018-12-20T13:04:38.258Z,88.00
2018-12-20T13:07:05.807Z,82.50
2018-12-20T13:09:33.386Z,82.70
2018-12-20T13:12:00.947Z,93.43
2018-12-20T13:14:28.495Z,86.03
2018-12-20T13:16:56.055Z,92.70
2018-12-20T13:19:24.281Z,89.07
2018-12-20T13:21:51.945Z,96.30
2018-12-20T13:24:19.495Z,99.13
2018-12-20T13:26:47.088Z,87.23
2018-12-20T13:29:14.637Z,103.27
2018-12-20T13:31:42.196Z,82.27
2018-12-20T13:34:09.785Z,90.20
2018-12-20T13:36:38.237Z,98.20
2018-12-20T13:39:06.532Z,99.67
2018-12-20T13:41:34.102Z,101.50
2018-12-20T13:44:01.699Z,97.47
2018-12-20T13:46:29.301Z,112.30
2018-12-20T13:48:56.882Z,100.03
2018-12-20T13:51:24.571Z,105.77
2018-12-20T13:53:52.173Z,114.63
2018-12-20T13:56:19.782Z,122.60
2018-12-20T13:58:47.426Z,119.43
2018-12-20T14:01:14.999Z,109.10
2018-12-20T14:03:42.589Z,119.67
2018-12-20T14:06:10.260Z,110.60
2018-12-20T14:08:37.793Z,145.68
2018-12-20T14:11:06.961Z,148.97
2018-12-20T14:13:34.700Z,148.37
2018-12-20T14:16:02.255Z,138.43
2018-12-20T14:18:31.087Z,145.70
2018-12-20T14:20:59.109Z,144.00
2018-12-20T14:23:26.817Z,153.80
2018-12-20T14:25:54.627Z,147.27
2018-12-20T14:28:22.185Z,137.70
2018-12-20T14:30:49.777Z,142.33
2018-12-20T14:33:17.473Z,153.57
2018-12-20T14:35:45.018Z,168.40
2018-12-20T14:38:13.941Z,160.03
2018-12-20T14:40:41.496Z,150.27
2018-12-20T14:43:09.717Z,159.27
2018-12-20T14:45:37.277Z,140.07
2018-12-20T14:48:04.805Z,145.97
2018-12-20T14:50:32.365Z,165.53
2018-12-20T14:52:59.921Z,160.70
2018-12-20T14:55:27.595Z,161.37
2018-12-20T14:57:55.171Z,160.93
2018-12-20T15:00:22.807Z,154.23
2018-12-20T15:02:50.354Z,166.77
2018-12-20T15:05:18.883Z,149.53
2018-12-20T15:07:46.512Z,145.47
2018-12-20T15:10:14.195Z,161.23
2018-12-20T15:12:41.822Z,139.90
2018-12-20T15:15:09.383Z,147.47
2018-12-20T15:17:37.186Z,144.60
2018-12-20T15:20:06.816Z,159.43
2018-12-20T15:22:34.367Z,167.37
2018-12-20T15:25:01.954Z,154.53
2018-12-20T15:27:29.514Z,180.83
2018-12-20T15:29:57.067Z,192.13
2018-12-20T15:32:24.613Z,165.27
2018-12-20T15:34:52.206Z,171.33
2018-12-20T15:37:20.558Z,168.23
2018-12-20T15:39:48.109Z,148.23
2018-12-20T15:42:15.736Z,147.43
2018-12-20T15:44:43.311Z,155.27
2018-12-20T15:47:10.912Z,172.73
2018-12-20T15:49:42.027Z,191.13
2018-12-20T15:52:08.453Z,198.17
2018-12-20T15:54:36.044Z,187.50
2018-12-20T15:57:03.627Z,196.60
2018-12-20T15:59:31.187Z,166.13
2018-12-20T16:01:58.775Z,182.60
2018-12-20T16:04:26.353Z,178.93
2018-12-20T16:06:53.892Z,205.53
2018-12-20T16:09:21.450Z,206.87
2018-12-20T16:11:48.992Z,173.30
2018-12-20T16:14:16.588Z,185.33
2018-12-20T16:16:44.147Z,168.60
2018-12-20T16:19:11.737Z,184.27
2018-12-20T16:21:39.285Z,190.97
2018-12-20T16:24:06.823Z,165.07
2018-12-20T16:26:34.418Z,162.27
2018-12-20T16:29:02.044Z,165.27
2018-12-20T16:31:29.677Z,181.83
2018-12-20T16:33:57.234Z,170.03
2018-12-20T16:36:24.829Z,172.20
2018-12-20T16:38:53.219Z,175.93
2018-12-20T16:41:20.850Z,151.47
2018-12-20T16:43:49.441Z,167.17
2018-12-20T16:46:17.969Z,167.67
2018-12-20T16:48:45.517Z,156.50
2018-12-20T16:51:14.010Z,164.20
2018-12-20T16:53:41.571Z,153.10
2018-12-20T16:56:09.230Z,152.33
2018-12-20T16:58:36.793Z,156.30
2018-12-20T17:01:05.305Z,151.70
2018-12-20T17:03:32.852Z,159.73
2018-12-20T17:06:00.448Z,155.70
2018-12-20T17:08:27.989Z,162.87
2018-12-20T17:10:55.575Z,154.50
2018-12-20T17:13:23.121Z,156.17
2018-12-20T17:15:50.714Z,173.43
2018-12-20T17:18:18.298Z,157.77
2018-12-20T17:20:45.878Z,167.40
2018-12-20T17:23:13.468Z,151.07
2018-12-20T17:25:41.063Z,174.67
2018-12-20T17:28:09.431Z,187.53
2018-12-20T17:30:36.991Z,196.13
2018-12-20T17:33:05.525Z,186.00
2018-12-20T17:35:33.156Z,151.37
2018-12-20T17:38:00.718Z,160.20
2018-12-20T17:40:28.952Z,170.20
2018-12-20T17:42:56.867Z,179.73
2018-12-20T17:45:30.254Z,186.57
2018-12-20T17:47:57.810Z,205.10
2018-12-20T17:50:25.409Z,176.13
2018-12-20T17:52:52.966Z,185.60
2018-12-20T17:55:20.560Z,193.50
2018-12-20T17:57:48.140Z,192.33
2018-12-20T18:00:15.920Z,196.47
2018-12-20T18:02:43.499Z,197.87
2018-12-20T18:05:11.056Z,205.10
2018-12-20T18:07:38.633Z,191.40
2018-12-20T18:10:08.915Z,181.00
2018-12-20T18:12:36.520Z,188.33
2018-12-20T18:15:05.047Z,175.80
2018-12-20T18:17:32.617Z,187.13
2018-12-20T18:20:03.919Z,176.27
2018-12-20T18:22:33.475Z,167.13
2018-12-20T18:25:01.712Z,181.60
2018-12-20T18:27:29.251Z,179.17
2018-12-20T18:29:56.851Z,175.43
2018-12-20T18:32:24.482Z,197.07
2018-12-20T18:34:52.042Z,185.10
2018-12-20T18:37:19.584Z,172.83
2018-12-20T18:39:48.102Z,193.23
2018-12-20T18:42:15.653Z,174.60
2018-12-20T18:44:43.281Z,183.53
2018-12-20T18:47:10.818Z,189.60
2018-12-20T18:49:38.404Z,191.10
2018-12-20T18:52:06.012Z,189.07
2018-12-20T18:54:33.589Z,197.30
2018-12-20T18:57:01.152Z,189.33
2018-12-20T18:59:30.409Z,189.73
2018-12-20T19:01:57.944Z,182.23
2018-12-20T19:04:26.263Z,185.70
2018-12-20T19:06:53.820Z,181.33
2018-12-20T19:09:21.417Z,194.53
2018-12-20T19:11:49.789Z,186.67
2018-12-20T19:14:18.317Z,184.87
2018-12-20T19:16:45.887Z,190.10
2018-12-20T19:19:15.275Z,178.67
2018-12-20T19:21:42.838Z,179.93
2018-12-20T19:24:10.434Z,200.37
2018-12-20T19:26:37.999Z,204.27
2018-12-20T19:29:07.373Z,201.17
2018-12-20T19:31:34.956Z,213.00
2018-12-20T19:34:02.512Z,198.93
2018-12-20T19:36:30.103Z,183.40
2018-12-20T19:38:58.629Z,187.67
2018-12-20T19:41:26.997Z,196.40
2018-12-20T19:43:54.559Z,193.47
2018-12-20T19:46:22.105Z,201.20
2018-12-20T19:48:49.663Z,204.03
2018-12-20T19:51:17.261Z,209.10
2018-12-20T19:53:45.738Z,202.80
2018-12-20T19:56:13.329Z,195.27
2018-12-20T19:58:40.878Z,195.67
2018-12-20T20:01:08.495Z,199.83
2018-12-20T20:03:36.959Z,178.33
2018-12-20T20:06:05.469Z,178.77
2018-12-20T20:08:33.112Z,191.97
2018-12-20T20:11:01.481Z,192.27
2018-12-20T20:13:30.913Z,179.27
2018-12-20T20:15:58.637Z,169.60
2018-12-20T20:18:26.185Z,170.07
2018-12-20T20:20:53.772Z,182.93
2018-12-20T20:23:21.316Z,187.93
2018-12-20T20:25:49.798Z,168.87
2018-12-20T20:28:17.378Z,174.27
2018-12-20T20:30:44.913Z,158.57
2018-12-20T20:33:12.456Z,145.47
2018-12-20T20:35:40.024Z,146.23
2018-12-20T20:38:07.592Z,145.40
2018-12-20T20:40:35.181Z,153.83
2018-12-20T20:43:02.748Z,152.53
2018-12-20T20:45:31.358Z,147.97
2018-12-20T20:47:58.970Z,176.50
2018-12-20T20:50:26.528Z,171.63
2018-12-20T20:52:54.080Z,163.17
2018-12-20T20:55:24.314Z,180.93
2018-12-20T20:57:51.856Z,188.30
2018-12-20T21:00:19.455Z,180.40
2018-12-20T21:02:46.999Z,179.33
2018-12-20T21:05:14.567Z,157.53
2018-12-20T21:07:42.163Z,158.67
2018-12-20T21:10:09.925Z,146.07
2018-12-20T21:12:37.498Z,165.20
2018-12-20T21:15:07.374Z,158.57
2018-12-20T21:17:34.955Z,167.10
2018-12-20T21:20:02.554Z,147.63
2018-12-20T21:22:30.217Z,150.33
2018-12-20T22:33:01.919Z,147.10
2018-12-20T22:42:05.164Z,173.27
2018-12-20T22:47:41.141Z,183.77
2018-12-20T22:53:28.083Z,174.07
2018-12-20T22:59:10.807Z,167.43
2018-12-20T23:13:25.412Z,173.33
2018-12-20T23:19:04.458Z,155.60
2018-12-20T23:24:35.508Z,149.47
2018-12-20T23:27:03.112Z,156.50
2018-12-20T23:29:30.700Z,148.33
2018-12-20T23:31:58.239Z,148.70
2018-12-20T23:34:25.930Z,161.60
2018-12-20T23:36:53.575Z,173.50
2018-12-20T23:39:21.993Z,153.93
2018-12-20T23:41:49.583Z,160.13
2018-12-20T23:44:17.173Z,157.17
2018-12-20T23:46:51.763Z,150.40
2018-12-20T23:49:19.313Z,146.33
2018-12-20T23:51:46.888Z,154.60
2018-12-20T23:54:14.435Z,151.07
2018-12-20T23:56:41.979Z,160.47
2018-12-20T23:59:09.515Z,148.20
